CST,Max TemperatureF,Mean TemperatureF,Min TemperatureF,Max Dew PointF,MeanDew PointF,Min DewpointF,Max Humidity, Mean Humidity, Min Humidity, Max Sea Level PressureIn, Mean Sea Level PressureIn, Min Sea Level PressureIn, Max VisibilityMiles, Mean VisibilityMiles, Min VisibilityMiles, Max Wind SpeedMPH, Mean Wind SpeedMPH, Max Gust SpeedMPH,PrecipitationIn, CloudCover, Events, WindDirDegrees
2013-2-1,28,12,-5,21,2,-11,80,66,49,30.36,30.15,29.95,10,10,10,18,6,24,0.00,3,,205
2013-2-2,39,29,19,30,17,7,93,71,58,30.17,30.08,29.98,10,8,1,28,8,40,0.01,7,Snow,302
2013-2-3,48,30,12,30,20,7,87,68,40,30.17,29.97,29.74,10,10,10,18,11,24,0.00,1,,220
2013-2-4,28,22,17,25,15,10,86,75,68,30.04,29.92,29.78,10,10,7,16,9,21,0.05,7,,315
2013-2-5,44,32,19,28,24,19,100,79,49,30.06,29.91,29.75,10,9,4,17,9,24,0.00,1,,287
2013-2-6,44,35,26,34,29,23,93,77,57,30.05,29.91,29.81,10,10,7,26,7,32,0.00,2,,177
2013-2-7,33,28,24,30,25,21,93,84,75,30.26,30.10,29.92,10,7,3,15,8,20,0.00,7,,4
2013-2-8,35,28,21,23,21,19,100,82,56,30.31,30.22,30.09,10,9,1,15,7,20,0.00,5,Snow,154
2013-2-9,48,36,24,32,28,21,93,76,50,30.10,29.89,29.70,10,8,4,25,15,30,0.00,5,Rain,170
2013-2-10,42,35,28,39,31,23,100,89,80,29.70,29.41,29.20,10,6,2,30,14,45,0.30,8,Rain-Snow,167
2013-2-11,26,25,23,23,20,18,86,77,74,30.10,29.99,29.66,10,10,5,29,21,39,0.00,8,Snow,306
2013-2-12,41,29,17,25,20,16,93,76,52,30.10,29.96,29.87,10,10,10,10,5,,0.00,0,,241
2013-2-13,48,34,21,32,27,19,100,75,46,29.87,29.75,29.66,10,10,10,13,3,18,0.00,2,,255
2013-2-14,39,28,17,30,22,7,93,71,54,30.28,29.99,29.74,10,10,7,22,12,32,0.00,5,,334
2013-2-15,24,16,8,19,11,7,92,78,63,30.35,30.32,30.28,10,9,2,10,3,,0.00,3,Snow,346
2013-2-16,35,22,8,25,16,5,92,79,56,30.30,30.10,30.00,10,10,10,12,4,16,0.00,3,,188
2013-2-17,51,36,21,30,24,18,86,66,38,30.00,29.76,29.55,10,10,10,24,9,29,0.00,0,,177
2013-2-18,39,24,8,30,17,1,81,69,51,30.04,29.78,29.57,10,10,10,28,14,40,0.00,4,Snow,328
2013-2-19,15,8,1,3,-3,-6,78,62,45,30.39,30.25,30.05,10,10,10,24,17,32,0.00,1,,329
2013-2-20,24,11,-2,7,-2,-8,78,57,34,30.39,30.32,30.23,10,10,10,12,6,16,0.00,3,,96
2013-2-21,26,20,15,18,12,7,93,72,43,30.28,30.10,29.92,10,7,1,17,9,24,0.02,7,Snow,82
2013-2-22,24,18,10,18,14,7,93,83,69,29.97,29.93,29.88,10,6,0,14,9,18,0.01,5,Snow,336
2013-2-23,26,11,-4,18,5,-9,92,82,69,29.96,29.87,29.81,10,8,0,8,1,,0.00,0,Snow,161
2013-2-24,26,16,5,25,16,1,100,87,74,30.08,29.98,29.86,7,4,0,6,1,,0.00,7,Fog,337
2013-2-25,28,24,19,25,22,18,100,90,80,30.10,30.04,29.96,7,3,0,8,3,,0.00,8,Fog,31
2013-2-26,32,26,19,27,22,18,100,88,75,29.99,29.91,29.84,7,3,1,14,7,18,0.00,6,,21
2013-2-27,37,29,21,25,20,18,93,76,56,30.09,29.99,29.90,10,8,4,18,12,29,0.00,1,,339
2013-2-28,28,24,21,21,20,18,93,79,69,30.22,30.18,30.10,10,10,10,15,10,21,0.00,8,Snow,345